Time;durP1;ratioP1;P1;durP2;ratioP2;P2;SDS_P1;SDS_P2;PMS_P1;PMS_P2;Temp;Humidity;BMP_temperature;BMP_pressure;BME280_temperature;BME280_humidity;BME280_pressure;Samples;Min_cycle;Max_cycle;Signal;HPM_P1;HPM_P2
2024/01/12 01:40:20;;;;;;;1999.90;999.90;;;;;;;;;;6011289;23;20352;-67
2024/01/12 01:43:09;;;;;;;1999.90;999.90;;;;;;;;;;5036925;28;20241;-68
2024/01/12 01:45:54;;;;;;;1999.90;999.90;;;;;;;;;;5036426;28;20281;-68
2024/01/12 01:48:40;;;;;;;1999.90;999.90;;;;;;;;;;5033149;28;20213;-68
2024/01/12 01:51:25;;;;;;;1999.90;999.90;;;;;;;;;;5020500;28;20306;-68
2024/01/12 01:54:11;;;;;;;1999.90;999.90;;;;;;;;;;5019822;28;20218;-68
2024/01/12 01:56:57;;;;;;;1999.90;999.90;;;;;;;;;;5019608;28;20346;-68
2024/01/12 01:59:42;;;;;;;1999.90;999.90;;;;;;;;;;5002633;28;20210;-68
2024/01/12 02:02:28;;;;;;;1999.90;999.90;;;;;;;;;;5010604;28;20928;-68
2024/01/12 02:05:13;;;;;;;1999.90;999.90;;;;;;;;;;5011161;28;20211;-68
2024/01/12 02:07:58;;;;;;;1999.90;999.90;;;;;;;;;;5021575;28;20206;-68
2024/01/12 02:10:43;;;;;;;1999.90;999.90;;;;;;;;;;5015271;28;20234;-69
2024/01/12 02:13:29;;;;;;;1999.90;999.90;;;;;;;;;;5023109;28;20215;-68
2024/01/12 02:16:14;;;;;;;1999.90;999.90;;;;;;;;;;5013960;28;20427;-68
2024/01/12 02:18:59;;;;;;;1999.90;999.90;;;;;;;;;;5023476;28;20227;-68
2024/01/12 02:21:45;;;;;;;1999.90;999.90;;;;;;;;;;4995269;28;20230;-68
2024/01/12 02:24:30;;;;;;;1999.90;999.90;;;;;;;;;;5017044;28;20206;-68
2024/01/12 02:27:15;;;;;;;1999.90;999.90;;;;;;;;;;5019627;28;20618;-69
2024/01/12 02:30:00;;;;;;;1999.90;999.90;;;;;;;;;;5020309;28;20292;-69
2024/01/12 02:32:45;;;;;;;1999.90;999.90;;;;;;;;;;5018868;28;20276;-68
2024/01/12 02:35:30;;;;;;;1999.90;999.90;;;;;;;;;;5034698;28;20206;-69
2024/01/12 02:38:16;;;;;;;1999.90;999.90;;;;;;;;;;5034891;28;20335;-67
2024/01/12 02:41:01;;;;;;;1999.90;999.90;;;;;;;;;;5032892;28;20240;-69
2024/01/12 02:43:46;;;;;;;1999.90;999.90;;;;;;;;;;5014799;28;20214;-68
2024/01/12 02:46:31;;;;;;;1999.90;999.90;;;;;;;;;;5013747;28;20214;-68
2024/01/12 02:49:16;;;;;;;1999.90;999.90;;;;;;;;;;5016464;28;20218;-68
2024/01/12 02:52:01;;;;;;;1999.90;999.90;;;;;;;;;;5016686;28;20222;-68
2024/01/12 02:54:48;;;;;;;1999.90;999.90;;;;;;;;;;4996928;28;20584;-69
2024/01/12 02:57:33;;;;;;;1999.90;999.90;;;;;;;;;;5021367;28;20235;-68
2024/01/12 03:00:18;;;;;;;1999.90;999.90;;;;;;;;;;5017769;28;20355;-68
2024/01/12 03:03:03;;;;;;;1999.90;999.90;;;;;;;;;;5021709;28;20404;-68
2024/01/12 03:05:49;;;;;;;1999.90;999.90;;;;;;;;;;5013254;28;20590;-68
2024/01/12 03:08:34;;;;;;;1999.90;999.90;;;;;;;;;;5023126;28;20314;-68
2024/01/12 03:11:20;;;;;;;1999.90;999.90;;;;;;;;;;5013829;28;20239;-68
2024/01/12 03:14:05;;;;;;;1999.90;999.90;;;;;;;;;;5022512;28;20215;-68
2024/01/12 03:16:50;;;;;;;1999.90;999.90;;;;;;;;;;5016846;28;20607;-68
2024/01/12 03:19:34;;;;;;;1999.90;999.90;;;;;;;;;;5021069;28;20209;-68
2024/01/12 03:22:19;;;;;;;1999.90;999.90;;;;;;;;;;5018310;28;20613;-68
2024/01/12 03:25:05;;;;;;;1999.90;999.90;;;;;;;;;;4998400;28;20206;-68
2024/01/12 03:27:51;;;;;;;1999.90;999.90;;;;;;;;;;5020851;28;20639;-68
2024/01/12 03:30:36;;;;;;;1999.90;999.90;;;;;;;;;;5020867;28;20320;-68
2024/01/12 03:33:21;;;;;;;1999.90;999.90;;;;;;;;;;5022022;28;20585;-68
2024/01/12 03:36:07;;;;;;;1999.90;999.90;;;;;;;;;;5006009;28;20511;-68
2024/01/12 03:38:53;;;;;;;1999.90;999.90;;;;;;;;;;5006829;28;20206;-68
2024/01/12 03:41:38;;;;;;;1999.90;999.90;;;;;;;;;;5019068;28;20745;-69
2024/01/12 03:44:24;;;;;;;1999.90;999.90;;;;;;;;;;5017771;28;20206;-68
2024/01/12 03:47:10;;;;;;;1999.90;999.90;;;;;;;;;;5015963;28;20214;-68
2024/01/12 03:49:54;;;;;;;1999.90;999.90;;;;;;;;;;5015800;28;20425;-68
2024/01/12 03:52:40;;;;;;;1999.90;999.90;;;;;;;;;;5020284;28;20702;-68
2024/01/12 03:55:25;;;;;;;1999.90;999.90;;;;;;;;;;5019973;28;20215;-68
2024/01/12 03:58:10;;;;;;;1999.90;999.90;;;;;;;;;;5020273;28;20320;-68
2024/01/12 04:00:56;;;;;;;1999.90;999.90;;;;;;;;;;5012287;28;20376;-68
2024/01/12 04:03:41;;;;;;;1999.90;999.90;;;;;;;;;;5021388;28;20210;-68
2024/01/12 04:06:26;;;;;;;1999.90;999.90;;;;;;;;;;5010637;28;20630;-68
2024/01/12 04:09:12;;;;;;;1999.90;999.90;;;;;;;;;;5008145;28;20210;-68
2024/01/12 04:11:57;;;;;;;1999.90;999.90;;;;;;;;;;5016993;28;20222;-68
2024/01/12 04:14:44;;;;;;;1999.90;999.90;;;;;;;;;;5013387;28;20281;-68
2024/01/12 04:17:30;;;;;;;1999.90;999.90;;;;;;;;;;5018530;28;20230;-68
2024/01/12 04:20:15;;;;;;;1999.90;999.90;;;;;;;;;;5020206;28;20238;-68
2024/01/12 04:23:00;;;;;;;1999.90;999.90;;;;;;;;;;5021052;28;20211;-68
2024/01/12 04:25:45;;;;;;;1999.90;999.90;;;;;;;;;;5011998;28;20214;-68
2024/01/12 04:28:30;;;;;;;1999.90;999.90;;;;;;;;;;5020005;28;20233;-68
2024/01/12 04:31:15;;;;;;;1999.90;999.90;;;;;;;;;;5010422;28;20305;-68
2024/01/12 04:34:01;;;;;;;1999.90;999.90;;;;;;;;;;5008311;28;20210;-68
2024/01/12 04:36:46;;;;;;;1999.90;999.90;;;;;;;;;;5013669;28;20248;-68
2024/01/12 04:39:31;;;;;;;1999.90;999.90;;;;;;;;;;5014402;28;20750;-68
2024/01/12 04:42:16;;;;;;;1999.90;999.90;;;;;;;;;;5017227;28;20766;-68
2024/01/12 04:45:01;;;;;;;1999.90;999.90;;;;;;;;;;5014111;28;20823;-68
2024/01/12 04:47:46;;;;;;;1999.90;999.90;;;;;;;;;;5018955;28;20373;-68
2024/01/12 04:50:32;;;;;;;1999.90;999.90;;;;;;;;;;5018647;28;20718;-68
2024/01/12 04:53:17;;;;;;;1999.90;999.90;;;;;;;;;;5015216;28;20221;-68
2024/01/12 04:56:03;;;;;;;1999.90;999.90;;;;;;;;;;5011131;28;20582;-68
2024/01/12 04:58:48;;;;;;;1999.90;999.90;;;;;;;;;;5021218;28;20202;-68
2024/01/12 05:01:32;;;;;;;1999.90;999.90;;;;;;;;;;5014188;28;20305;-68
2024/01/12 05:04:17;;;;;;;1999.90;999.90;;;;;;;;;;5021055;28;20214;-69
2024/01/12 05:07:04;;;;;;;1999.90;999.90;;;;;;;;;;5012889;28;20323;-68
2024/01/12 05:09:49;;;;;;;1999.90;999.90;;;;;;;;;;5009378;28;20345;-68
2024/01/12 05:12:34;;;;;;;1999.90;999.90;;;;;;;;;;5020012;28;20241;-68
2024/01/12 05:15:20;;;;;;;1999.90;999.90;;;;;;;;;;5023870;28;20214;-68
2024/01/12 05:18:05;;;;;;;1999.90;999.90;;;;;;;;;;5011856;28;20607;-68
2024/01/12 05:20:50;;;;;;;1999.90;999.90;;;;;;;;;;5017933;28;20606;-68
2024/01/12 05:23:36;;;;;;;1999.90;999.90;;;;;;;;;;5019902;28;20746;-69
2024/01/12 05:26:21;;;;;;;1999.90;999.90;;;;;;;;;;5010912;28;20611;-68
2024/01/12 05:29:08;;;;;;;1999.90;999.90;;;;;;;;;;5011734;28;20210;-68
2024/01/12 05:31:52;;;;;;;1999.90;999.90;;;;;;;;;;5009800;28;20237;-68
2024/01/12 05:34:37;;;;;;;1999.90;999.90;;;;;;;;;;5018684;28;20222;-68
2024/01/12 05:37:22;;;;;;;1999.90;999.90;;;;;;;;;;5014729;28;20350;-68
2024/01/12 05:40:10;;;;;;;1999.90;999.90;;;;;;;;;;5009437;28;20717;-68
2024/01/12 05:42:55;;;;;;;1999.90;999.90;;;;;;;;;;5025965;28;20774;-68
2024/01/12 05:45:40;;;;;;;1999.90;999.90;;;;;;;;;;5024645;28;20210;-68
2024/01/12 05:48:24;;;;;;;1999.90;999.90;;;;;;;;;;5023954;28;20211;-68
2024/01/12 05:51:12;;;;;;;1999.90;999.90;;;;;;;;;;5019006;28;20256;-68
2024/01/12 05:53:57;;;;;;;1999.90;999.90;;;;;;;;;;5021820;28;22260;-67
2024/01/12 05:56:44;;;;;;;1999.90;999.90;;;;;;;;;;5020723;28;20213;-68
2024/01/12 05:59:29;;;;;;;1999.90;999.90;;;;;;;;;;5015716;28;20329;-68
2024/01/12 06:02:15;;;;;;;1999.90;999.90;;;;;;;;;;5008810;28;20277;-68
2024/01/12 06:05:00;;;;;;;1999.90;999.90;;;;;;;;;;5023441;28;20214;-68
2024/01/12 06:07:45;;;;;;;1999.90;999.90;;;;;;;;;;5015051;28;20744;-69
2024/01/12 06:10:30;;;;;;;1999.90;999.90;;;;;;;;;;5023638;28;20242;-69
2024/01/12 06:13:17;;;;;;;1999.90;999.90;;;;;;;;;;5015149;28;20341;-68
2024/01/12 06:16:02;;;;;;;1999.90;999.90;;;;;;;;;;5021826;28;20432;-67
2024/01/12 06:18:47;;;;;;;1999.90;999.90;;;;;;;;;;5023267;28;20230;-68
2024/01/12 06:21:32;;;;;;;1999.90;999.90;;;;;;;;;;5014123;28;20606;-68
2024/01/12 06:24:17;;;;;;;1999.90;999.90;;;;;;;;;;5014814;28;20210;-68
2024/01/12 06:27:02;;;;;;;1999.90;999.90;;;;;;;;;;5014687;28;20207;-68
2024/01/12 06:29:48;;;;;;;1999.90;999.90;;;;;;;;;;5023174;28;20799;-68
2024/01/12 06:32:33;;;;;;;1999.90;999.90;;;;;;;;;;5023239;28;20218;-68
2024/01/12 06:35:18;;;;;;;1999.90;999.90;;;;;;;;;;5016495;28;20218;-68
2024/01/12 06:38:03;;;;;;;1999.90;999.90;;;;;;;;;;5025654;28;20342;-68
2024/01/12 06:40:48;;;;;;;1999.90;999.90;;;;;;;;;;5016858;28;20313;-68
2024/01/12 06:43:32;;;;;;;1999.90;999.90;;;;;;;;;;5023120;28;20210;-68
2024/01/12 06:46:19;;;;;;;1999.90;999.90;;;;;;;;;;5018677;28;20399;-72
2024/01/12 06:49:04;;;;;;;1999.90;999.90;;;;;;;;;;5015265;28;20715;-67
2024/01/12 06:51:49;;;;;;;1999.90;999.90;;;;;;;;;;5014320;28;20230;-68
2024/01/12 06:54:34;;;;;;;1999.90;999.90;;;;;;;;;;5013544;28;20218;-67
2024/01/12 06:57:18;;;;;;;1999.90;999.90;;;;;;;;;;5012580;28;20221;-68
2024/01/12 07:00:06;;;;;;;1999.90;999.90;;;;;;;;;;5023324;28;20473;-69
2024/01/12 07:02:52;;;;;;;1999.90;999.90;;;;;;;;;;5017096;28;20730;-69
2024/01/12 07:05:37;;;;;;;1999.90;999.90;;;;;;;;;;5016356;28;20630;-69
2024/01/12 07:08:22;;;;;;;1999.90;999.90;;;;;;;;;;5008294;28;20214;-69
2024/01/12 07:11:07;;;;;;;1999.90;999.90;;;;;;;;;;5014128;28;20233;-69
2024/01/12 07:13:53;;;;;;;1999.90;999.90;;;;;;;;;;5022215;28;20210;-69
2024/01/12 07:16:38;;;;;;;1999.90;999.90;;;;;;;;;;5013799;28;20211;-68
2024/01/12 07:19:24;;;;;;;1999.90;999.90;;;;;;;;;;5018929;28;20592;-69
2024/01/12 07:22:10;;;;;;;1999.90;999.90;;;;;;;;;;5022314;28;20230;-69
2024/01/12 07:24:54;;;;;;;1999.90;999.90;;;;;;;;;;5021816;28;20209;-69
2024/01/12 07:27:40;;;;;;;1999.90;999.90;;;;;;;;;;5014106;28;20206;-69
2024/01/12 07:30:24;;;;;;;1999.90;999.90;;;;;;;;;;5009052;28;20336;-69
2024/01/12 07:33:09;;;;;;;1999.90;999.90;;;;;;;;;;5021876;28;20943;-69
2024/01/12 07:35:56;;;;;;;1999.90;999.90;;;;;;;;;;5013720;28;20209;-69
2024/01/12 07:38:41;;;;;;;1999.90;999.90;;;;;;;;;;5021844;28;20598;-69
2024/01/12 07:41:26;;;;;;;1999.90;999.90;;;;;;;;;;5026188;28;20242;-69
2024/01/12 07:44:12;;;;;;;1999.90;999.90;;;;;;;;;;5024970;28;20202;-69
2024/01/12 07:46:57;;;;;;;1999.90;999.90;;;;;;;;;;5025850;28;20214;-70
2024/01/12 07:49:42;;;;;;;1999.90;999.90;;;;;;;;;;5012559;28;20384;-68
2024/01/12 07:52:29;;;;;;;1999.90;999.90;;;;;;;;;;5012422;28;20220;-69
2024/01/12 07:55:14;;;;;;;1999.90;999.90;;;;;;;;;;5016057;28;20287;-69
2024/01/12 07:57:59;;;;;;;1999.90;999.90;;;;;;;;;;5012599;28;20224;-68
2024/01/12 08:00:44;;;;;;;1999.90;999.90;;;;;;;;;;5017412;28;20319;-69
2024/01/12 08:03:28;;;;;;;1999.90;999.90;;;;;;;;;;5012958;28;20365;-69
2024/01/12 08:06:14;;;;;;;1999.90;999.90;;;;;;;;;;5012866;28;20211;-69
2024/01/12 08:09:00;;;;;;;1999.90;999.90;;;;;;;;;;5013072;28;20203;-68
2024/01/12 08:11:45;;;;;;;1999.90;999.90;;;;;;;;;;5021088;28;20236;-68
2024/01/12 08:14:30;;;;;;;1999.90;999.90;;;;;;;;;;5021001;28;20322;-69
2024/01/12 08:17:15;;;;;;;1999.90;999.90;;;;;;;;;;5015164;28;20210;-69
2024/01/12 08:20:00;;;;;;;1999.90;999.90;;;;;;;;;;5014284;28;20230;-69
2024/01/12 08:22:44;;;;;;;1999.90;999.90;;;;;;;;;;5023887;28;20214;-69
2024/01/12 08:25:31;;;;;;;1999.90;999.90;;;;;;;;;;5016837;28;20206;-68
2024/01/12 08:28:15;;;;;;;1999.90;999.90;;;;;;;;;;5012028;28;20202;-69
2024/01/12 08:31:00;;;;;;;1999.90;999.90;;;;;;;;;;5013469;28;20226;-70
2024/01/12 08:33:48;;;;;;;1999.90;999.90;;;;;;;;;;5023278;28;20423;-70
2024/01/12 08:36:32;;;;;;;1999.90;999.90;;;;;;;;;;5018854;28;20817;-69
2024/01/12 08:39:18;;;;;;;1999.90;999.90;;;;;;;;;;5012087;28;20227;-69
2024/01/12 08:42:04;;;;;;;1999.90;999.90;;;;;;;;;;5016585;28;20953;-70
2024/01/12 08:44:49;;;;;;;1999.90;999.90;;;;;;;;;;5008867;28;20705;-69
2024/01/12 08:47:34;;;;;;;1999.90;999.90;;;;;;;;;;5012341;28;20584;-69
2024/01/12 08:50:19;;;;;;;1999.90;999.90;;;;;;;;;;5012136;28;20234;-68
2024/01/12 08:53:04;;;;;;;1999.90;999.90;;;;;;;;;;5013588;28;20211;-68
2024/01/12 08:55:49;;;;;;;1999.90;999.90;;;;;;;;;;5011306;28;20354;-69
2024/01/12 08:58:37;;;;;;;1999.90;999.90;;;;;;;;;;5006035;28;20628;-69
2024/01/12 09:01:24;;;;;;;1999.90;999.90;;;;;;;;;;5012107;28;20227;-70
2024/01/12 09:04:08;;;;;;;1999.90;999.90;;;;;;;;;;5010022;28;20404;-69
2024/01/12 09:06:54;;;;;;;1999.90;999.90;;;;;;;;;;5012204;28;20257;-69
2024/01/12 09:09:38;;;;;;;1999.90;999.90;;;;;;;;;;5012203;28;20593;-69
2024/01/12 09:12:23;;;;;;;1999.90;999.90;;;;;;;;;;5011750;28;20257;-69
2024/01/12 09:15:10;;;;;;;1999.90;999.90;;;;;;;;;;5011855;28;20211;-69
2024/01/12 09:17:55;;;;;;;1999.90;999.90;;;;;;;;;;5011516;28;20348;-69
2024/01/12 09:20:40;;;;;;;1999.90;999.90;;;;;;;;;;5011123;28;20230;-70
2024/01/12 09:23:25;;;;;;;1999.90;999.90;;;;;;;;;;5004254;28;20214;-69
2024/01/12 09:26:11;;;;;;;1999.90;999.90;;;;;;;;;;5011137;28;20253;-68
2024/01/12 09:28:56;;;;;;;1999.90;999.90;;;;;;;;;;5011912;28;20755;-69
2024/01/12 09:31:42;;;;;;;1999.90;999.90;;;;;;;;;;5014259;28;20325;-67
2024/01/12 09:34:27;;;;;;;1999.90;999.90;;;;;;;;;;5011844;28;20823;-68
2024/01/12 09:37:12;;;;;;;1999.90;999.90;;;;;;;;;;5011428;28;20210;-69
2024/01/12 09:39:56;;;;;;;1999.90;999.90;;;;;;;;;;5011439;28;20286;-69
2024/01/12 09:42:42;;;;;;;1999.90;999.90;;;;;;;;;;5011820;28;20267;-68
2024/01/12 09:45:28;;;;;;;1999.90;999.90;;;;;;;;;;5011491;28;20207;-69
2024/01/12 09:48:14;;;;;;;1999.90;999.90;;;;;;;;;;5011404;28;20215;-69
2024/01/12 09:50:59;;;;;;;1999.90;999.90;;;;;;;;;;5011582;28;20276;-69
2024/01/12 09:53:44;;;;;;;1999.90;999.90;;;;;;;;;;5011375;28;20206;-69
2024/01/12 09:56:29;;;;;;;1999.90;999.90;;;;;;;;;;5011513;28;20210;-70
2024/01/12 09:59:16;;;;;;;1999.90;999.90;;;;;;;;;;5011308;28;20613;-68
2024/01/12 10:02:01;;;;;;;1999.90;999.90;;;;;;;;;;5011447;28;20235;-69
2024/01/12 10:04:47;;;;;;;1999.90;999.90;;;;;;;;;;5011266;28;20407;-69
2024/01/12 10:07:32;;;;;;;1999.90;999.90;;;;;;;;;;5011567;28;20707;-71
2024/01/12 10:10:17;;;;;;;1999.90;999.90;;;;;;;;;;5010977;28;20236;-71
2024/01/12 10:13:02;;;;;;;1999.90;999.90;;;;;;;;;;5020372;28;20599;-71
2024/01/12 10:15:47;;;;;;;1999.90;999.90;;;;;;;;;;5011247;28;20266;-71
2024/01/12 10:18:32;;;;;;;1999.90;999.90;;;;;;;;;;5011397;28;20219;-71
2024/01/12 10:21:18;;;;;;;1999.90;999.90;;;;;;;;;;5011196;28;20355;-70
2024/01/12 10:24:03;;;;;;;1999.90;999.90;;;;;;;;;;5011345;28;20224;-70
2024/01/12 10:26:49;;;;;;;1999.90;999.90;;;;;;;;;;5014542;28;20204;-71
2024/01/12 10:29:36;;;;;;;1999.90;999.90;;;;;;;;;;5011054;28;20212;-70
2024/01/12 10:32:21;;;;;;;1999.90;999.90;;;;;;;;;;5014766;28;20222;-71
2024/01/12 10:35:06;;;;;;;1999.90;999.90;;;;;;;;;;5014874;28;20442;-71
2024/01/12 10:37:53;;;;;;;1999.90;999.90;;;;;;;;;;5023066;28;20610;-70
2024/01/12 10:40:38;;;;;;;1999.90;999.90;;;;;;;;;;4995141;28;20744;-71
2024/01/12 10:43:24;;;;;;;1999.90;999.90;;;;;;;;;;5014050;28;20350;-69
2024/01/12 10:46:11;;;;;;;1999.90;999.90;;;;;;;;;;5023117;28;20220;-71
2024/01/12 10:48:58;;;;;;;1999.90;999.90;;;;;;;;;;5022305;28;20212;-72
2024/01/12 10:51:51;;;;;;;1999.90;999.90;;;;;;;;;;4993747;28;20550;-71
2024/01/12 10:54:44;;;;;;;1999.90;999.90;;;;;;;;;;5005314;28;20268;-71
2024/01/12 10:57:30;;;;;;;1999.90;999.90;;;;;;;;;;5014340;28;20280;-70
2024/01/12 11:00:16;;;;;;;1999.90;999.90;;;;;;;;;;5013697;28;20241;-72
2024/01/12 11:03:03;;;;;;;1999.90;999.90;;;;;;;;;;5014346;28;20218;-71
2024/01/12 11:05:48;;;;;;;1999.90;999.90;;;;;;;;;;5014034;28;20227;-72
2024/01/12 11:08:34;;;;;;;1999.90;999.90;;;;;;;;;;5014194;28;20258;-72
2024/01/12 11:11:23;;;;;;;1999.90;999.90;;;;;;;;;;5014008;28;20259;-73
2024/01/12 11:14:08;;;;;;;1999.90;999.90;;;;;;;;;;5010682;28;20211;-74
2024/01/12 11:16:53;;;;;;;1999.90;999.90;;;;;;;;;;5014061;28;20215;-72
2024/01/12 11:19:39;;;;;;;1999.90;999.90;;;;;;;;;;5012940;28;20956;-72
2024/01/12 11:22:25;;;;;;;1999.90;999.90;;;;;;;;;;5013922;28;20220;-72
2024/01/12 11:25:11;;;;;;;1999.90;999.90;;;;;;;;;;5012841;28;20223;-72
2024/01/12 11:27:57;;;;;;;1999.90;999.90;;;;;;;;;;5023265;28;20568;-73
2024/01/12 11:30:42;;;;;;;1999.90;999.90;;;;;;;;;;5021617;28;20326;-74
2024/01/12 11:33:28;;;;;;;1999.90;999.90;;;;;;;;;;5015470;28;20330;-74
2024/01/12 11:36:14;;;;;;;1999.90;999.90;;;;;;;;;;5017915;28;21010;-73
2024/01/12 11:38:59;;;;;;;1999.90;999.90;;;;;;;;;;5019891;28;20232;-72
2024/01/12 11:41:44;;;;;;;1999.90;999.90;;;;;;;;;;5016945;28;20357;-73
2024/01/12 11:44:32;;;;;;;1999.90;999.90;;;;;;;;;;5010270;28;20260;-72
2024/01/12 11:47:18;;;;;;;1999.90;999.90;;;;;;;;;;5021768;28;20736;-72
2024/01/12 11:50:04;;;;;;;1999.90;999.90;;;;;;;;;;5020968;28;20303;-73
2024/01/12 11:52:55;;;;;;;1999.90;999.90;;;;;;;;;;4993992;28;20223;-73
2024/01/12 11:55:40;;;;;;;1999.90;999.90;;;;;;;;;;5001247;28;20202;-74
2024/01/12 11:58:25;;;;;;;1999.90;999.90;;;;;;;;;;5018551;28;20216;-73
2024/01/12 12:01:11;;;;;;;1999.90;999.90;;;;;;;;;;5021122;28;20231;-74
2024/01/12 12:03:56;;;;;;;1999.90;999.90;;;;;;;;;;5012612;28;20412;-74
2024/01/12 12:06:41;;;;;;;1999.90;999.90;;;;;;;;;;5009855;28;20201;-74
2024/01/12 12:09:26;;;;;;;1999.90;999.90;;;;;;;;;;5012954;28;20209;-73
2024/01/12 12:12:11;;;;;;;1999.90;999.90;;;;;;;;;;5009571;28;20257;-72
2024/01/12 12:14:56;;;;;;;1999.90;999.90;;;;;;;;;;5018590;28;20282;-73
2024/01/12 12:17:44;;;;;;;1999.90;999.90;;;;;;;;;;5010362;28;20701;-73
2024/01/12 12:20:29;;;;;;;1999.90;999.90;;;;;;;;;;5012906;28;20469;-73
2024/01/12 12:23:14;;;;;;;1999.90;999.90;;;;;;;;;;5012404;28;20213;-73
2024/01/12 12:26:00;;;;;;;1999.90;999.90;;;;;;;;;;5018280;28;20708;-72
2024/01/12 12:28:45;;;;;;;1999.90;999.90;;;;;;;;;;5014533;28;20212;-72
2024/01/12 12:31:31;;;;;;;1999.90;999.90;;;;;;;;;;5021130;28;20717;-73
2024/01/12 12:34:18;;;;;;;1999.90;999.90;;;;;;;;;;5010546;28;20330;-72
2024/01/12 12:37:06;;;;;;;1999.90;999.90;;;;;;;;;;5023440;28;20226;-73
2024/01/12 12:39:51;;;;;;;1999.90;999.90;;;;;;;;;;5020238;28;20232;-72
2024/01/12 12:42:36;;;;;;;1999.90;999.90;;;;;;;;;;5011841;28;20393;-73
2024/01/12 12:45:23;;;;;;;1999.90;999.90;;;;;;;;;;5017933;28;20275;-71
2024/01/12 12:48:09;;;;;;;1999.90;999.90;;;;;;;;;;5019036;28;20216;-73
2024/01/12 12:50:56;;;;;;;1999.90;999.90;;;;;;;;;;5009269;28;20287;-71
2024/01/12 12:53:41;;;;;;;1999.90;999.90;;;;;;;;;;5010369;28;20365;-73
2024/01/12 12:56:25;;;;;;;1999.90;999.90;;;;;;;;;;5011191;28;20306;-73
2024/01/12 12:59:12;;;;;;;1999.90;999.90;;;;;;;;;;5011654;28;20748;-73
2024/01/12 13:01:58;;;;;;;1999.90;999.90;;;;;;;;;;5011352;28;20348;-72
2024/01/12 13:04:43;;;;;;;1999.90;999.90;;;;;;;;;;5012371;28;20225;-72
2024/01/12 13:07:30;;;;;;;1999.90;999.90;;;;;;;;;;5015494;28;20213;-73
2024/01/12 13:10:15;;;;;;;1999.90;999.90;;;;;;;;;;5011268;28;20255;-74
2024/01/12 13:13:00;;;;;;;1999.90;999.90;;;;;;;;;;5003415;28;20218;-72
2024/01/12 13:15:45;;;;;;;1999.90;999.90;;;;;;;;;;5008099;28;20351;-74
2024/01/12 13:18:30;;;;;;;1999.90;999.90;;;;;;;;;;5019222;28;20295;-73
2024/01/12 13:21:17;;;;;;;1999.90;999.90;;;;;;;;;;5015917;28;20725;-74
2024/01/12 13:24:04;;;;;;;1999.90;999.90;;;;;;;;;;5017213;28;20214;-72
2024/01/12 13:26:49;;;;;;;1999.90;999.90;;;;;;;;;;5012031;28;20211;-71
2024/01/12 13:29:33;;;;;;;1999.90;999.90;;;;;;;;;;5012165;28;20212;-73
2024/01/12 13:32:19;;;;;;;1999.90;999.90;;;;;;;;;;5012206;28;20624;-73
2024/01/12 13:35:05;;;;;;;1999.90;999.90;;;;;;;;;;5011710;28;20270;-73
2024/01/12 13:37:50;;;;;;;1999.90;999.90;;;;;;;;;;5012313;28;20256;-73
2024/01/12 13:40:38;;;;;;;1999.90;999.90;;;;;;;;;;5011719;28;20233;-73
2024/01/12 13:43:23;;;;;;;1999.90;999.90;;;;;;;;;;5012037;28;20228;-73
2024/01/12 13:46:07;;;;;;;1999.90;999.90;;;;;;;;;;5011897;28;20208;-72
2024/01/12 13:48:52;;;;;;;1999.90;999.90;;;;;;;;;;5012304;28;20206;-73
2024/01/12 13:51:37;;;;;;;1999.90;999.90;;;;;;;;;;5010319;28;20462;-72
2024/01/12 13:54:22;;;;;;;1999.90;999.90;;;;;;;;;;5011922;28;20210;-72
2024/01/12 13:57:09;;;;;;;1999.90;999.90;;;;;;;;;;5011887;28;20208;-72
2024/01/12 13:59:53;;;;;;;1999.90;999.90;;;;;;;;;;5011994;28;20243;-72
2024/01/12 14:02:38;;;;;;;1999.90;999.90;;;;;;;;;;5013013;28;20200;-72
2024/01/12 14:05:24;;;;;;;1999.90;999.90;;;;;;;;;;5014012;28;20230;-73
2024/01/12 14:08:11;;;;;;;1999.90;999.90;;;;;;;;;;5016393;28;20211;-73
2024/01/12 14:10:55;;;;;;;1999.90;999.90;;;;;;;;;;5014894;28;20239;-74
2024/01/12 14:13:41;;;;;;;1999.90;999.90;;;;;;;;;;5024076;28;20235;-74
2024/01/12 14:16:26;;;;;;;1999.90;999.90;;;;;;;;;;5025692;28;20208;-73
2024/01/12 14:19:11;;;;;;;1999.90;999.90;;;;;;;;;;5013156;28;20424;-72
2024/01/12 14:21:57;;;;;;;1999.90;999.90;;;;;;;;;;5014360;28;20230;-72
2024/01/12 14:24:42;;;;;;;1999.90;999.90;;;;;;;;;;5016766;28;20591;-74
2024/01/12 14:27:27;;;;;;;1999.90;999.90;;;;;;;;;;5012870;28;20220;-72
2024/01/12 14:30:13;;;;;;;1999.90;999.90;;;;;;;;;;5021039;28;20217;-73
2024/01/12 14:32:58;;;;;;;1999.90;999.90;;;;;;;;;;5020594;28;20509;-73
2024/01/12 14:35:43;;;;;;;1999.90;999.90;;;;;;;;;;5017360;28;20444;-73
2024/01/12 14:38:28;;;;;;;1999.90;999.90;;;;;;;;;;5015189;28;20208;-73
2024/01/12 14:41:13;;;;;;;1999.90;999.90;;;;;;;;;;5014863;28;20252;-73
2024/01/12 14:43:58;;;;;;;1999.90;999.90;;;;;;;;;;5015007;28;20203;-73
2024/01/12 14:46:44;;;;;;;1999.90;999.90;;;;;;;;;;5014767;28;20254;-73
2024/01/12 14:49:29;;;;;;;1999.90;999.90;;;;;;;;;;5014683;28;20264;-73
2024/01/12 14:52:16;;;;;;;1999.90;999.90;;;;;;;;;;5014933;28;20224;-73
2024/01/12 14:55:01;;;;;;;1999.90;999.90;;;;;;;;;;5014812;28;20204;-73
2024/01/12 14:57:46;;;;;;;1999.90;999.90;;;;;;;;;;5014832;28;20204;-73
2024/01/12 15:00:31;;;;;;;1999.90;999.90;;;;;;;;;;5014374;28;20362;-73
2024/01/12 15:03:18;;;;;;;1999.90;999.90;;;;;;;;;;5013474;28;20404;-73
2024/01/12 15:06:03;;;;;;;1999.90;999.90;;;;;;;;;;5014332;28;20224;-73
2024/01/12 15:08:48;;;;;;;1999.90;999.90;;;;;;;;;;5014517;28;20346;-73
2024/01/12 15:11:34;;;;;;;1999.90;999.90;;;;;;;;;;5014602;28;20355;-74
2024/01/12 15:14:18;;;;;;;1999.90;999.90;;;;;;;;;;5013937;28;20707;-73
2024/01/12 15:17:04;;;;;;;1999.90;999.90;;;;;;;;;;5014562;28;20217;-73
2024/01/12 15:19:51;;;;;;;1999.90;999.90;;;;;;;;;;5014015;28;20224;-73
2024/01/12 15:22:36;;;;;;;1999.90;999.90;;;;;;;;;;5014655;28;20203;-74
2024/01/12 15:25:22;;;;;;;1999.90;999.90;;;;;;;;;;5014241;28;20207;-73
2024/01/12 15:28:06;;;;;;;1999.90;999.90;;;;;;;;;;5014579;28;20282;-73
2024/01/12 15:30:51;;;;;;;1999.90;999.90;;;;;;;;;;5014022;28;20235;-73
2024/01/12 15:33:37;;;;;;;1999.90;999.90;;;;;;;;;;5014089;28;20212;-73
2024/01/12 15:36:23;;;;;;;1999.90;999.90;;;;;;;;;;5013946;28;20299;-73
2024/01/12 15:39:08;;;;;;;1999.90;999.90;;;;;;;;;;5013811;28;20228;-73
2024/01/12 15:41:53;;;;;;;1999.90;999.90;;;;;;;;;;5013386;28;20612;-73
2024/01/12 15:44:38;;;;;;;1999.90;999.90;;;;;;;;;;5013913;28;20740;-73
2024/01/12 15:47:22;;;;;;;1999.90;999.90;;;;;;;;;;5013114;28;20416;-73
2024/01/12 15:50:08;;;;;;;1999.90;999.90;;;;;;;;;;5013639;28;20622;-73
2024/01/12 15:52:54;;;;;;;1999.90;999.90;;;;;;;;;;5013427;28;20689;-73
2024/01/12 15:55:39;;;;;;;1999.90;999.90;;;;;;;;;;5013459;28;20224;-73
2024/01/12 15:58:24;;;;;;;1999.90;999.90;;;;;;;;;;5013574;28;20204;-73
2024/01/12 16:01:09;;;;;;;1999.90;999.90;;;;;;;;;;5013321;28;20362;-73
2024/01/12 16:03:54;;;;;;;1999.90;999.90;;;;;;;;;;5013566;28;20331;-73
2024/01/12 16:06:39;;;;;;;1999.90;999.90;;;;;;;;;;5013304;28;20206;-73
2024/01/12 16:09:25;;;;;;;1999.90;999.90;;;;;;;;;;5013402;28;20210;-74
2024/01/12 16:12:10;;;;;;;1999.90;999.90;;;;;;;;;;5013378;28;20601;-73
2024/01/12 16:14:55;;;;;;;1999.90;999.90;;;;;;;;;;5013576;28;20265;-74
2024/01/12 16:17:40;;;;;;;1999.90;999.90;;;;;;;;;;5013296;28;20212;-73
2024/01/12 16:20:25;;;;;;;1999.90;999.90;;;;;;;;;;5013153;28;20239;-74
2024/01/12 16:23:10;;;;;;;1999.90;999.90;;;;;;;;;;5013151;28;20698;-74
2024/01/12 16:25:57;;;;;;;1999.90;999.90;;;;;;;;;;5011722;28;20222;-73
2024/01/12 16:28:42;;;;;;;1999.90;999.90;;;;;;;;;;5013081;28;20256;-73
2024/01/12 16:31:27;;;;;;;1999.90;999.90;;;;;;;;;;5012968;28;20271;-73
2024/01/12 16:34:13;;;;;;;1999.90;999.90;;;;;;;;;;5012967;28;20666;-73
2024/01/12 16:36:58;;;;;;;1999.90;999.90;;;;;;;;;;5013019;28;20208;-73
2024/01/12 16:39:43;;;;;;;1999.90;999.90;;;;;;;;;;5012943;28;20252;-73
2024/01/12 16:42:30;;;;;;;1999.90;999.90;;;;;;;;;;5012715;28;20188;-73
2024/01/12 16:45:15;;;;;;;1999.90;999.90;;;;;;;;;;5019154;28;20212;-73
2024/01/12 16:48:00;;;;;;;1999.90;999.90;;;;;;;;;;5017193;28;20742;-74
2024/01/12 16:50:45;;;;;;;1999.90;999.90;;;;;;;;;;5012552;28;20233;-73
2024/01/12 16:53:30;;;;;;;1999.90;999.90;;;;;;;;;;5012696;28;20204;-73
2024/01/12 16:56:15;;;;;;;1999.90;999.90;;;;;;;;;;5012394;28;20229;-73
2024/01/12 16:59:01;;;;;;;1999.90;999.90;;;;;;;;;;5012223;28;20213;-73
2024/01/12 17:01:46;;;;;;;1999.90;999.90;;;;;;;;;;5012194;28;20755;-74